Time;durP1;ratioP1;P1;durP2;ratioP2;P2;SDS_P1;SDS_P2;PMS_P1;PMS_P2;Temp;Humidity;BMP_temperature;BMP_pressure;BME280_temperature;BME280_humidity;BME280_pressure;Samples;Min_cycle;Max_cycle;Signal;HPM_P1;HPM_P2
2023/08/06 00:00:23;;;;;;;18.30;16.15;;;13.70;99.90;;;;;;5055397;28;20823;-41
2023/08/06 00:02:49;;;;;;;23.25;17.55;;;13.60;99.90;;;;;;5053994;28;20037;-43
2023/08/06 00:05:20;;;;;;;19.77;17.70;;;13.60;99.90;;;;;;5033697;28;20049;-42
2023/08/06 00:07:47;;;;;;;19.27;17.45;;;13.60;99.90;;;;;;5027573;28;20135;-42
2023/08/06 00:10:12;;;;;;;19.48;17.48;;;13.60;99.90;;;;;;5040837;28;20123;-43
2023/08/06 00:12:38;;;;;;;20.02;17.83;;;13.70;99.90;;;;;;5036100;28;20037;-45
2023/08/06 00:15:04;;;;;;;23.67;19.52;;;13.70;99.90;;;;;;5050313;28;20506;-42
2023/08/06 00:17:30;;;;;;;22.33;19.98;;;13.70;99.90;;;;;;5042101;28;20099;-40
2023/08/06 00:19:56;;;;;;;24.08;20.30;;;13.70;99.90;;;;;;5038751;28;20045;-43
2023/08/06 00:22:21;;;;;;;25.08;21.27;;;13.70;99.90;;;;;;5053782;28;20425;-41
2023/08/06 00:24:47;;;;;;;22.83;20.13;;;13.70;99.90;;;;;;5054571;28;20133;-42
2023/08/06 00:27:12;;;;;;;26.52;21.88;;;13.60;99.90;;;;;;5055003;28;20086;-40
2023/08/06 00:29:38;;;;;;;24.85;22.25;;;13.60;99.90;;;;;;5054732;28;20497;-44
2023/08/06 00:32:04;;;;;;;23.73;21.35;;;13.60;99.90;;;;;;5042942;28;20040;-43
2023/08/06 00:34:30;;;;;;;22.80;19.48;;;13.60;99.90;;;;;;5029928;28;20049;-42
2023/08/06 00:36:55;;;;;;;22.48;19.73;;;13.60;99.90;;;;;;5046874;28;20518;-42
2023/08/06 00:39:21;;;;;;;22.67;20.13;;;13.60;99.90;;;;;;5054554;28;20519;-46
2023/08/06 00:41:47;;;;;;;24.58;19.77;;;13.60;99.90;;;;;;5054327;28;20463;-44
2023/08/06 00:44:12;;;;;;;21.77;18.95;;;13.50;99.90;;;;;;5054845;28;20058;-43
2023/08/06 00:46:39;;;;;;;22.58;20.05;;;13.50;99.90;;;;;;5026445;28;20228;-45
2023/08/06 00:49:05;;;;;;;23.25;19.80;;;13.50;99.90;;;;;;5051135;28;20457;-43
2023/08/06 00:51:31;;;;;;;25.73;19.77;;;13.60;99.90;;;;;;5049259;28;20144;-47
2023/08/06 00:53:57;;;;;;;25.73;21.17;;;13.50;99.90;;;;;;5037899;28;20394;-47
2023/08/06 00:56:24;;;;;;;22.30;19.88;;;13.60;99.90;;;;;;5045224;28;20078;-43
2023/08/06 00:58:50;;;;;;;22.80;19.83;;;13.60;99.90;;;;;;5037178;28;20123;-45
2023/08/06 01:01:15;;;;;;;22.88;19.42;;;13.60;99.90;;;;;;5043781;28;20448;-46
2023/08/06 01:03:41;;;;;;;22.38;20.08;;;13.50;99.90;;;;;;5054521;28;20547;-46
2023/08/06 01:06:07;;;;;;;24.10;20.23;;;13.50;99.90;;;;;;5056630;28;20424;-44
2023/08/06 01:08:58;;;;;;;24.83;20.60;;;13.60;99.90;;;;;;5058336;28;20047;-48
2023/08/06 01:12:07;;;;;;;25.02;20.80;;;13.60;99.90;;;;;;5043508;28;20048;-43
2023/08/06 01:14:58;;;;;;;21.73;19.52;;;13.60;99.90;;;;;;4978944;28;20149;-44
2023/08/06 01:17:26;;;;;;;22.38;19.13;;;13.60;99.90;;;;;;4968638;28;20412;-43
2023/08/06 01:19:52;;;;;;;23.20;20.75;;;13.50;99.90;;;;;;4994399;28;20049;-43
2023/08/06 01:22:18;;;;;;;24.45;21.48;;;13.60;99.90;;;;;;4994570;28;20545;-45
2023/08/06 01:24:47;;;;;;;24.27;20.92;;;13.60;99.90;;;;;;4979747;28;20540;-45
2023/08/06 01:27:41;;;;;;;25.55;22.13;;;13.50;99.90;;;;;;4996345;28;20614;-44
2023/08/06 01:30:15;;;;;;;24.63;21.75;;;13.60;99.90;;;;;;4996078;28;20563;-41
2023/08/06 01:32:44;;;;;;;24.33;21.05;;;13.60;99.90;;;;;;4994193;28;20522;-43
2023/08/06 01:35:13;;;;;;;25.50;21.23;;;13.60;99.90;;;;;;4995341;28;20133;-44
2023/08/06 01:37:40;;;;;;;23.58;21.30;;;13.60;99.90;;;;;;4995591;28;20557;-41
2023/08/06 01:40:10;;;;;;;22.77;20.38;;;13.60;99.90;;;;;;4995564;28;20128;-44
2023/08/06 01:42:36;;;;;;;27.65;21.67;;;13.50;99.90;;;;;;4994478;28;20060;-45
2023/08/06 01:45:02;;;;;;;24.65;21.25;;;13.50;99.90;;;;;;4978792;28;20074;-46
2023/08/06 01:47:27;;;;;;;27.98;22.75;;;13.60;99.90;;;;;;4995688;28;20053;-44
2023/08/06 01:49:53;;;;;;;25.50;22.48;;;13.60;99.90;;;;;;5018646;28;20053;-45
2023/08/06 01:52:19;;;;;;;22.95;20.52;;;13.60;99.90;;;;;;5044363;28;20044;-45
2023/08/06 01:54:44;;;;;;;29.10;21.98;;;13.60;99.90;;;;;;5057694;28;20464;-45
2023/08/06 01:57:10;;;;;;;27.10;23.30;;;13.50;99.90;;;;;;5036362;28;20041;-45
2023/08/06 01:59:36;;;;;;;26.23;22.58;;;13.60;99.90;;;;;;5037156;28;20128;-46
2023/08/06 02:02:02;;;;;;;22.70;20.15;;;13.50;99.90;;;;;;5019814;28;20075;-41
2023/08/06 02:04:28;;;;;;;25.88;22.05;;;13.50;99.90;;;;;;5047027;28;20353;-46
2023/08/06 02:06:54;;;;;;;24.38;21.27;;;13.50;99.90;;;;;;5055149;28;20513;-44
2023/08/06 02:09:19;;;;;;;23.02;20.65;;;13.40;99.90;;;;;;5046813;28;20049;-44
2023/08/06 02:11:45;;;;;;;23.98;20.85;;;13.50;99.90;;;;;;5049711;28;20040;-42
2023/08/06 02:14:11;;;;;;;26.33;22.00;;;13.40;99.90;;;;;;5047350;28;20063;-43
2023/08/06 02:16:37;;;;;;;22.33;19.95;;;13.50;99.90;;;;;;5052415;28;20498;-43
2023/08/06 02:19:03;;;;;;;22.58;20.27;;;13.40;99.90;;;;;;5053828;28;20044;-47
2023/08/06 02:21:28;;;;;;;23.73;20.63;;;13.50;99.90;;;;;;5052282;28;20068;-46
2023/08/06 02:23:54;;;;;;;24.23;21.70;;;13.50;99.90;;;;;;5047819;28;20072;-42
2023/08/06 02:26:20;;;;;;;26.45;22.30;;;13.50;99.90;;;;;;5043342;28;20127;-44
2023/08/06 02:28:45;;;;;;;26.30;22.85;;;13.50;99.90;;;;;;5055951;28;20158;-42
2023/08/06 02:31:11;;;;;;;30.80;23.92;;;13.40;99.90;;;;;;5052637;28;20127;-47
2023/08/06 02:33:37;;;;;;;24.45;21.83;;;13.50;99.90;;;;;;5046328;28;20052;-41
2023/08/06 02:36:05;;;;;;;24.13;20.65;;;13.50;99.90;;;;;;5035325;28;20040;-42
2023/08/06 02:38:32;;;;;;;24.08;21.10;;;13.50;99.90;;;;;;5046851;28;20105;-44
2023/08/06 02:40:58;;;;;;;23.63;20.42;;;13.40;99.90;;;;;;5037291;28;20123;-46
2023/08/06 02:43:23;;;;;;;30.27;24.45;;;13.50;99.90;;;;;;5046549;28;20048;-45
2023/08/06 02:45:49;;;;;;;26.50;22.40;;;13.50;99.90;;;;;;5043745;28;20045;-46
2023/08/06 02:48:15;;;;;;;25.05;22.23;;;13.50;99.90;;;;;;5047518;28;20120;-45
2023/08/06 02:50:41;;;;;;;27.63;23.02;;;13.40;99.90;;;;;;5051782;28;20045;-44
2023/08/06 02:53:08;;;;;;;24.33;21.73;;;13.50;99.90;;;;;;5046880;28;20033;-42
2023/08/06 02:55:34;;;;;;;23.25;20.75;;;13.50;99.90;;;;;;5039658;28;20080;-47
2023/08/06 02:58:01;;;;;;;25.67;21.63;;;13.60;99.90;;;;;;5045760;28;20798;-43
2023/08/06 03:00:27;;;;;;;22.65;20.13;;;13.50;99.90;;;;;;5049996;28;20057;-42
2023/08/06 03:02:53;;;;;;;22.67;20.17;;;13.60;99.90;;;;;;5027024;28;20049;-41
2023/08/06 03:05:19;;;;;;;24.52;21.63;;;13.50;99.90;;;;;;5052234;28;20507;-44
2023/08/06 03:07:45;;;;;;;24.23;21.63;;;13.60;99.90;;;;;;5038033;28;20040;-45
2023/08/06 03:10:10;;;;;;;23.00;20.60;;;13.50;99.90;;;;;;5042411;28;20048;-45
2023/08/06 03:12:36;;;;;;;25.13;21.67;;;13.50;99.90;;;;;;5033273;28;20055;-43
2023/08/06 03:15:02;;;;;;;24.55;21.45;;;13.40;99.90;;;;;;5052105;28;20044;-41
2023/08/06 03:17:27;;;;;;;23.90;21.30;;;13.50;99.90;;;;;;5050955;28;20127;-45
2023/08/06 03:19:53;;;;;;;24.05;21.55;;;13.40;99.90;;;;;;5038591;28;20493;-46
2023/08/06 03:22:19;;;;;;;23.55;20.55;;;13.40;99.90;;;;;;5055414;28;20574;-49
2023/08/06 03:24:44;;;;;;;22.25;18.92;;;13.40;99.90;;;;;;5055232;28;20040;-42
2023/08/06 03:27:10;;;;;;;28.90;22.15;;;13.50;99.90;;;;;;5034384;28;20060;-43
2023/08/06 03:29:36;;;;;;;22.23;19.92;;;13.40;99.90;;;;;;5034610;28;20044;-46
2023/08/06 03:32:01;;;;;;;21.42;19.25;;;13.40;99.90;;;;;;5045728;28;20040;-48
2023/08/06 03:34:28;;;;;;;21.77;19.27;;;13.40;99.90;;;;;;5039352;28;20052;-41
2023/08/06 03:36:53;;;;;;;23.45;20.55;;;13.40;99.90;;;;;;5047096;28;20179;-48
2023/08/06 03:39:19;;;;;;;23.20;20.52;;;13.40;99.90;;;;;;5042915;28;20044;-44
2023/08/06 03:41:44;;;;;;;24.35;20.55;;;13.40;99.90;;;;;;5035731;28;20506;-42
2023/08/06 03:44:10;;;;;;;24.48;21.27;;;13.40;99.90;;;;;;5054341;28;20044;-45
2023/08/06 03:46:36;;;;;;;24.50;21.33;;;13.50;99.90;;;;;;5045630;28;20377;-44
2023/08/06 03:49:02;;;;;;;22.35;19.67;;;13.50;99.90;;;;;;5033079;28;20041;-42
2023/08/06 03:51:27;;;;;;;25.10;21.27;;;13.50;99.90;;;;;;5049702;28;20578;-46
2023/08/06 03:53:53;;;;;;;22.83;20.55;;;13.50;99.90;;;;;;5037547;28;20048;-42
2023/08/06 03:56:19;;;;;;;24.83;22.15;;;13.40;99.90;;;;;;5045427;28;20056;-43
2023/08/06 03:58:44;;;;;;;24.10;20.85;;;13.50;99.90;;;;;;5034086;28;20076;-45
2023/08/06 04:01:10;;;;;;;22.30;19.90;;;13.50;99.90;;;;;;5053343;28;20128;-42
2023/08/06 04:03:35;;;;;;;23.90;18.85;;;13.50;99.90;;;;;;5005462;28;20523;-44
2023/08/06 04:06:04;;;;;;;21.25;19.00;;;13.60;99.90;;;;;;5034933;28;20063;-43
2023/08/06 04:08:30;;;;;;;22.88;19.60;;;13.50;99.90;;;;;;5040956;28;20055;-42
2023/08/06 04:10:55;;;;;;;21.23;19.02;;;13.60;99.90;;;;;;5044149;28;20045;-45
2023/08/06 04:13:21;;;;;;;21.95;19.73;;;13.60;99.90;;;;;;5051657;28;20405;-42
2023/08/06 04:15:47;;;;;;;25.65;20.60;;;13.60;99.90;;;;;;5054950;28;20087;-42
2023/08/06 04:18:13;;;;;;;22.67;19.63;;;13.60;99.90;;;;;;5027688;28;20519;-42
2023/08/06 04:20:49;;;;;;;22.15;19.85;;;13.60;99.90;;;;;;5026975;28;20052;-45
2023/08/06 04:23:15;;;;;;;22.42;19.30;;;13.50;99.90;;;;;;5035522;28;20829;-43
2023/08/06 04:25:41;;;;;;;30.65;23.30;;;13.50;99.90;;;;;;5054342;28;20120;-46
2023/08/06 04:28:07;;;;;;;23.70;19.83;;;13.50;99.90;;;;;;5054690;28;20540;-43
2023/08/06 04:30:33;;;;;;;23.25;20.70;;;13.60;99.90;;;;;;5054867;28;20076;-47
2023/08/06 04:32:58;;;;;;;28.27;19.75;;;13.60;99.90;;;;;;5053714;28;20249;-48
2023/08/06 04:35:24;;;;;;;26.20;21.67;;;13.60;99.90;;;;;;5047975;28;20127;-43
2023/08/06 04:37:50;;;;;;;24.77;21.95;;;13.60;99.90;;;;;;5054063;28;20063;-42
2023/08/06 04:40:16;;;;;;;36.72;25.13;;;13.50;99.90;;;;;;5053808;28;20044;-42
2023/08/06 04:42:41;;;;;;;27.38;22.17;;;13.60;99.90;;;;;;5035687;28;20083;-46
2023/08/06 04:45:07;;;;;;;30.02;22.27;;;13.60;99.90;;;;;;5042443;28;20041;-43
2023/08/06 04:47:33;;;;;;;30.33;21.80;;;13.70;99.90;;;;;;5047892;28;20356;-46
2023/08/06 04:49:59;;;;;;;27.98;18.98;;;13.60;99.90;;;;;;5027167;28;20059;-48
2023/08/06 04:52:27;;;;;;;22.60;20.33;;;13.60;99.90;;;;;;5040625;28;20120;-42
2023/08/06 04:54:54;;;;;;;25.08;21.13;;;13.70;99.90;;;;;;5042436;28;20053;-45
2023/08/06 04:57:19;;;;;;;26.73;20.75;;;13.60;99.90;;;;;;5052102;28;20236;-45
2023/08/06 04:59:45;;;;;;;24.00;21.27;;;13.70;99.90;;;;;;5042871;28;20048;-42
2023/08/06 05:02:11;;;;;;;24.92;20.98;;;13.60;99.90;;;;;;5051125;28;20471;-48
2023/08/06 05:04:37;;;;;;;26.90;21.25;;;13.70;99.90;;;;;;5035758;28;20056;-44
2023/08/06 05:07:03;;;;;;;22.35;20.05;;;13.70;99.90;;;;;;5054249;28;20045;-42
2023/08/06 05:09:29;;;;;;;24.55;20.65;;;13.70;99.90;;;;;;5054179;28;20052;-46
2023/08/06 05:11:54;;;;;;;25.55;20.83;;;13.70;99.90;;;;;;5048239;28;20057;-44
2023/08/06 05:14:20;;;;;;;26.65;22.20;;;13.80;99.90;;;;;;5045042;28;20080;-45
2023/08/06 05:16:46;;;;;;;25.83;21.73;;;13.70;99.90;;;;;;5054075;28;20083;-45
2023/08/06 05:19:11;;;;;;;24.85;21.35;;;13.80;99.90;;;;;;5036268;28;20049;-47
2023/08/06 05:21:37;;;;;;;24.30;21.25;;;13.80;99.90;;;;;;5051755;28;20157;-43
2023/08/06 05:24:03;;;;;;;27.70;22.70;;;13.80;99.90;;;;;;5042428;28;20479;-42
2023/08/06 05:26:28;;;;;;;27.23;22.25;;;13.90;99.90;;;;;;5051754;28;20611;-47
2023/08/06 05:28:54;;;;;;;24.25;20.80;;;13.90;99.90;;;;;;5042771;28;20068;-44
2023/08/06 05:31:20;;;;;;;27.63;23.02;;;14.00;99.90;;;;;;5051363;28;20348;-45
2023/08/06 05:33:45;;;;;;;23.52;20.20;;;14.00;99.90;;;;;;5042461;28;20087;-42
2023/08/06 05:36:11;;;;;;;25.02;22.05;;;14.10;99.90;;;;;;5047558;28;20478;-46
2023/08/06 05:38:36;;;;;;;27.95;22.42;;;14.20;99.90;;;;;;5045240;28;20517;-45
2023/08/06 05:41:02;;;;;;;27.38;23.58;;;14.40;99.90;;;;;;5034132;28;20048;-45
2023/08/06 05:43:28;;;;;;;24.92;22.35;;;14.80;99.90;;;;;;5024689;28;20045;-45
2023/08/06 05:45:54;;;;;;;22.52;20.05;;;15.60;99.90;;;;;;5047657;28;20053;-44
2023/08/06 05:48:19;;;;;;;22.13;19.50;;;15.90;99.90;;;;;;5044347;28;20076;-43
2023/08/06 05:50:45;;;;;;;21.35;18.52;;;15.90;99.90;;;;;;5033182;28;20072;-47
2023/08/06 05:53:11;;;;;;;19.42;17.73;;;15.80;99.90;;;;;;5057127;28;20040;-45
2023/08/06 05:55:36;;;;;;;18.77;16.95;;;15.90;99.90;;;;;;5053585;28;20041;-45
2023/08/06 05:58:02;;;;;;;19.60;17.90;;;15.90;99.90;;;;;;5037383;28;20566;-45
2023/08/06 06:00:28;;;;;;;21.58;19.45;;;16.20;99.90;;;;;;5033205;28;20045;-49
2023/08/06 06:02:53;;;;;;;19.52;17.70;;;17.00;99.90;;;;;;5037167;28;20041;-44
2023/08/06 06:05:19;;;;;;;19.02;17.17;;;18.40;99.90;;;;;;5054486;28;20451;-45
2023/08/06 06:07:44;;;;;;;14.57;13.05;;;20.20;99.90;;;;;;5022416;28;20399;-46
2023/08/06 06:10:10;;;;;;;13.32;12.05;;;21.80;99.90;;;;;;5057461;28;20084;-42
2023/08/06 06:12:38;;;;;;;14.00;11.73;;;22.80;99.90;;;;;;5037548;28;20060;-45
2023/08/06 06:15:04;;;;;;;11.55;10.55;;;23.30;99.90;;;;;;5039020;28;20051;-48
2023/08/06 06:17:30;;;;;;;11.77;10.70;;;23.30;99.90;;;;;;5053752;28;20145;-45
2023/08/06 06:19:55;;;;;;;9.90;9.10;;;22.90;99.90;;;;;;5032400;28;20069;-44
2023/08/06 06:22:21;;;;;;;14.18;10.52;;;22.30;99.90;;;;;;5029547;28;20044;-45
2023/08/06 06:24:46;;;;;;;11.73;10.63;;;21.90;99.90;;;;;;5034517;28;20048;-44
2023/08/06 06:27:12;;;;;;;12.23;10.85;;;21.90;99.90;;;;;;5030642;28;20044;-44
2023/08/06 06:29:39;;;;;;;10.38;9.38;;;22.10;99.90;;;;;;5039537;28;20316;-45
2023/08/06 06:32:05;;;;;;;10.68;9.77;;;22.60;99.90;;;;;;5055917;28;20491;-43
2023/08/06 06:34:30;;;;;;;9.55;8.73;;;23.60;99.90;;;;;;5052296;28;20044;-45
2023/08/06 06:36:56;;;;;;;10.40;9.50;;;23.90;99.90;;;;;;5047193;28;20043;-49
2023/08/06 06:39:21;;;;;;;10.43;9.43;;;23.50;99.90;;;;;;5042911;28;20045;-43
2023/08/06 06:41:47;;;;;;;10.05;9.18;;;23.10;99.90;;;;;;5055632;28;20049;-45
2023/08/06 06:44:14;;;;;;;10.18;9.25;;;22.60;99.90;;;;;;5051938;28;20521;-41
2023/08/06 06:46:40;;;;;;;10.95;10.02;;;22.30;99.90;;;;;;5029406;28;20373;-44
2023/08/06 06:49:06;;;;;;;10.82;9.55;;;22.10;99.90;;;;;;5052847;28;20037;-48
2023/08/06 06:51:32;;;;;;;11.23;10.32;;;21.70;99.90;;;;;;5041045;28;20067;-42
2023/08/06 06:53:58;;;;;;;12.00;11.00;;;21.20;99.90;;;;;;5040340;28;20139;-47
2023/08/06 06:56:23;;;;;;;11.88;10.88;;;20.70;99.90;;;;;;5056185;28;20496;-46
2023/08/06 06:58:49;;;;;;;11.95;10.85;;;20.30;99.90;;;;;;5052138;28;20096;-44
2023/08/06 07:01:15;;;;;;;12.48;11.48;;;20.00;99.90;;;;;;5045741;28;20148;-43
2023/08/06 07:03:40;;;;;;;12.13;11.13;;;19.50;99.90;;;;;;5042888;28;20040;-43
2023/08/06 07:06:06;;;;;;;13.07;12.07;;;19.30;99.90;;;;;;5047087;28;20051;-48
2023/08/06 07:08:32;;;;;;;11.95;10.88;;;19.10;99.90;;;;;;5036486;28;20057;-42
2023/08/06 07:11:06;;;;;;;12.32;11.32;;;19.00;99.90;;;;;;5046025;28;20150;-48
2023/08/06 07:13:32;;;;;;;12.02;10.93;;;19.00;99.90;;;;;;5055011;28;20045;-47
2023/08/06 07:15:58;;;;;;;13.05;11.85;;;19.00;99.90;;;;;;5037851;28;20063;-45
2023/08/06 07:18:24;;;;;;;12.10;11.05;;;19.00;99.90;;;;;;5045775;28;20045;-47
2023/08/06 07:20:51;;;;;;;13.23;10.40;;;19.10;99.90;;;;;;5035677;28;20123;-43
2023/08/06 07:23:20;;;;;;;11.13;10.07;;;19.00;99.90;;;;;;5043158;28;20406;-43
2023/08/06 07:25:47;;;;;;;10.88;9.80;;;18.90;99.90;;;;;;5034600;28;20049;-45
2023/08/06 07:28:13;;;;;;;11.38;10.43;;;18.80;99.90;;;;;;5053543;28;20045;-45
2023/08/06 07:30:40;;;;;;;11.55;10.60;;;18.60;99.90;;;;;;5042501;28;20559;-44
2023/08/06 07:33:06;;;;;;;11.65;10.65;;;18.40;99.90;;;;;;5019111;28;20041;-46
2023/08/06 07:35:32;;;;;;;11.68;10.73;;;18.30;99.90;;;;;;5047620;28;20040;-45
2023/08/06 07:37:57;;;;;;;11.82;10.82;;;18.20;99.90;;;;;;5054532;28;20109;-45
2023/08/06 07:40:23;;;;;;;12.23;11.10;;;18.10;99.90;;;;;;5055111;28;20048;-46
2023/08/06 07:42:49;;;;;;;11.60;10.70;;;18.00;99.90;;;;;;5053812;28;20313;-47
2023/08/06 07:45:15;;;;;;;16.48;14.85;;;17.90;99.90;;;;;;5025674;28;20056;-41
2023/08/06 07:47:40;;;;;;;13.52;12.30;;;17.80;99.90;;;;;;5053909;28;20051;-45
2023/08/06 07:50:06;;;;;;;13.77;12.65;;;17.90;99.90;;;;;;5055565;28;20044;-42
2023/08/06 07:52:32;;;;;;;13.93;12.82;;;17.90;99.90;;;;;;5042647;28;20040;-45
2023/08/06 07:54:58;;;;;;;13.88;12.57;;;17.90;99.90;;;;;;5055439;28;20048;-47
2023/08/06 07:57:24;;;;;;;13.80;12.52;;;17.80;99.90;;;;;;5024948;28;20144;-46
2023/08/06 07:59:50;;;;;;;13.02;11.93;;;17.70;99.90;;;;;;5055377;28;20059;-45
2023/08/06 08:02:15;;;;;;;13.98;12.80;;;17.80;99.90;;;;;;5040623;28;20686;-43
2023/08/06 08:04:41;;;;;;;14.38;13.07;;;17.70;99.90;;;;;;5054828;28;20461;-45
2023/08/06 08:07:07;;;;;;;14.02;12.82;;;17.60;99.90;;;;;;5054812;28;20546;-42
2023/08/06 08:09:34;;;;;;;14.43;13.20;;;17.60;99.90;;;;;;5047741;28;20048;-44
2023/08/06 08:12:02;;;;;;;14.35;13.07;;;17.60;99.90;;;;;;5041748;28;20067;-42
2023/08/06 08:14:28;;;;;;;14.40;13.15;;;17.60;99.90;;;;;;5041594;28;20199;-45
2023/08/06 08:16:54;;;;;;;14.23;13.02;;;17.60;99.90;;;;;;5045367;28;20053;-44
2023/08/06 08:19:21;;;;;;;14.88;13.48;;;17.60;99.90;;;;;;5043534;28;20055;-41
2023/08/06 08:21:46;;;;;;;14.13;12.93;;;17.70;99.90;;;;;;5042813;28;20048;-45
2023/08/06 08:24:12;;;;;;;13.85;12.68;;;17.70;99.90;;;;;;5046888;28;20041;-41
2023/08/06 08:26:38;;;;;;;13.95;12.73;;;17.70;99.90;;;;;;5049909;28;20044;-44
2023/08/06 08:29:03;;;;;;;14.68;13.20;;;17.90;99.90;;;;;;5046718;28;20107;-46
2023/08/06 08:31:29;;;;;;;14.30;12.90;;;18.00;99.90;;;;;;5044288;28;20044;-46
2023/08/06 08:33:55;;;;;;;14.50;13.10;;;18.10;99.90;;;;;;5047666;28;20044;-45
2023/08/06 08:36:21;;;;;;;14.50;13.20;;;18.20;99.90;;;;;;5048530;28;20051;-42
2023/08/06 08:38:46;;;;;;;13.07;11.98;;;18.20;99.90;;;;;;5045686;28;20087;-45
2023/08/06 08:41:12;;;;;;;12.35;11.15;;;18.30;99.90;;;;;;5043033;28;20066;-42
2023/08/06 08:43:40;;;;;;;13.00;11.70;;;18.40;99.90;;;;;;5038861;28;20139;-41
2023/08/06 08:46:08;;;;;;;11.98;10.98;;;18.50;99.90;;;;;;5051024;28;20102;-43
2023/08/06 08:48:33;;;;;;;13.50;12.20;;;18.60;99.90;;;;;;5017826;28;20065;-47
2023/08/06 08:50:59;;;;;;;11.27;10.18;;;18.80;99.90;;;;;;5035829;28;20040;-46
2023/08/06 08:53:26;;;;;;;11.25;10.25;;;18.80;99.90;;;;;;5023177;28;20033;-45
2023/08/06 08:55:53;;;;;;;10.73;9.77;;;18.90;99.90;;;;;;5041282;28;21130;-42
2023/08/06 08:58:18;;;;;;;11.50;10.43;;;19.10;99.90;;;;;;5024437;28;20084;-45
2023/08/06 09:00:48;;;;;;;10.70;9.63;;;19.10;99.90;;;;;;5037871;28;20143;-45
2023/08/06 09:03:14;;;;;;;10.15;8.90;;;19.30;99.90;;;;;;5017702;28;20045;-43
2023/08/06 09:05:44;;;;;;;9.93;8.93;;;19.40;99.90;;;;;;5043986;28;20048;-44
2023/08/06 09:08:14;;;;;;;10.18;9.18;;;19.40;99.90;;;;;;5045231;28;20049;-44
2023/08/06 09:10:42;;;;;;;8.73;7.93;;;19.50;99.90;;;;;;5044216;28;20063;-44
2023/08/06 09:13:08;;;;;;;9.63;8.68;;;19.60;99.90;;;;;;5021264;28;20044;-46
2023/08/06 09:15:34;;;;;;;7.82;7.13;;;19.70;99.90;;;;;;5039490;28;20409;-42
2023/08/06 09:18:00;;;;;;;8.20;7.43;;;19.70;99.90;;;;;;5041144;28;20045;-48
2023/08/06 09:20:25;;;;;;;8.65;7.72;;;19.80;99.90;;;;;;5034942;28;20036;-43
2023/08/06 09:22:54;;;;;;;9.02;8.13;;;19.70;99.90;;;;;;5041623;28;20544;-46
2023/08/06 09:25:25;;;;;;;9.93;8.95;;;19.60;99.90;;;;;;5022662;28;20057;-47
2023/08/06 09:27:51;;;;;;;8.80;8.00;;;19.80;99.90;;;;;;5045541;28;20099;-47
2023/08/06 09:30:31;;;;;;;9.60;7.07;;;20.00;99.90;;;;;;5047586;28;20044;-42
2023/08/06 09:32:57;;;;;;;6.75;6.05;;;20.10;99.90;;;;;;5030857;28;20505;-42
2023/08/06 09:35:23;;;;;;;6.10;5.60;;;20.20;99.90;;;;;;5051546;28;20204;-42
2023/08/06 09:37:49;;;;;;;7.07;5.55;;;20.20;99.90;;;;;;5038026;28;20053;-47
2023/08/06 09:40:28;;;;;;;6.60;5.93;;;20.50;99.90;;;;;;5055234;28;20588;-44
2023/08/06 09:42:55;;;;;;;6.25;5.70;;;20.60;99.90;;;;;;5038014;28;20055;-44
2023/08/06 09:45:24;;;;;;;6.38;5.20;;;20.80;99.90;;;;;;5045050;28;20052;-44
2023/08/06 09:47:55;;;;;;;6.43;5.82;;;21.00;99.90;;;;;;5056657;28;20086;-48
2023/08/06 09:50:21;;;;;;;6.40;5.90;;;21.00;99.90;;;;;;5056605;28;20052;-45
2023/08/06 09:52:48;;;;;;;6.95;6.35;;;21.00;99.90;;;;;;5037462;28;20051;-43
2023/08/06 09:55:14;;;;;;;6.55;5.95;;;21.20;99.90;;;;;;5047815;28;20142;-45
2023/08/06 09:57:41;;;;;;;7.82;7.03;;;21.20;99.90;;;;;;5039879;28;20060;-47
2023/08/06 10:00:11;;;;;;;7.13;6.18;;;21.10;99.90;;;;;;5056248;28;20044;-42
2023/08/06 10:02:41;;;;;;;7.95;7.15;;;21.20;99.90;;;;;;5042835;28;20044;-45
2023/08/06 10:05:08;;;;;;;6.85;5.72;;;21.10;99.90;;;;;;5038114;28;20517;-43
2023/08/06 10:07:34;;;;;;;8.55;5.82;;;21.20;99.90;;;;;;5025952;28;20060;-44
2023/08/06 10:10:00;;;;;;;6.65;5.97;;;21.10;99.90;;;;;;5026828;28;20436;-48
2023/08/06 10:12:29;;;;;;;5.97;5.43;;;21.10;99.90;;;;;;5050322;28;20413;-46
2023/08/06 10:14:59;;;;;;;6.05;5.45;;;21.10;99.90;;;;;;5047797;28;20137;-45
2023/08/06 10:17:25;;;;;;;6.13;5.53;;;21.10;99.90;;;;;;5056288;28;20045;-44
2023/08/06 10:19:54;;;;;;;6.25;5.65;;;21.20;99.90;;;;;;5056554;28;20044;-45
2023/08/06 10:22:21;;;;;;;7.35;6.63;;;21.40;99.90;;;;;;5046982;28;20410;-44
2023/08/06 10:24:52;;;;;;;6.28;5.60;;;21.40;99.90;;;;;;5044426;28;20384;-44
2023/08/06 10:27:52;;;;;;;6.53;5.63;;;21.40;99.90;;;;;;5050261;28;20052;-42
2023/08/06 10:30:32;;;;;;;5.28;4.80;;;21.30;99.90;;;;;;5052094;28;20044;-47
2023/08/06 10:33:04;;;;;;;6.00;5.40;;;21.30;99.90;;;;;;5043688;28;20106;-45
2023/08/06 10:35:37;;;;;;;6.22;5.00;;;21.30;99.90;;;;;;5041795;28;20052;-47
2023/08/06 10:38:14;;;;;;;;;;;21.10;99.90;;;;;;5029739;28;20041;-42
2023/08/06 10:40:41;;;;;;;5.05;4.20;;;21.10;99.90;;;;;;5046900;28;20290;-44
2023/08/06 10:43:09;;;;;;;4.53;4.05;;;21.10;99.90;;;;;;5047253;28;20078;-44
2023/08/06 10:45:38;;;;;;;5.00;4.07;;;21.20;99.90;;;;;;5048846;28;20064;-45
2023/08/06 10:48:04;;;;;;;4.78;4.10;;;21.30;99.90;;;;;;5046481;28;20473;-45
2023/08/06 10:50:31;;;;;;;3.78;3.13;;;21.60;99.90;;;;;;5046811;28;20048;-46
2023/08/06 10:52:57;;;;;;;6.60;3.40;;;21.80;99.90;;;;;;5047285;28;20049;-45
2023/08/06 10:55:25;;;;;;;4.55;3.50;;;21.90;99.90;;;;;;5048698;28;20467;-42
2023/08/06 10:57:51;;;;;;;5.15;3.88;;;21.90;99.90;;;;;;5045556;28;20133;-44
2023/08/06 11:00:16;;;;;;;4.35;3.70;;;21.90;99.90;;;;;;5025037;28;20574;-42
2023/08/06 11:02:43;;;;;;;5.15;3.85;;;21.90;99.90;;;;;;5047805;28;20051;-44
2023/08/06 11:05:11;;;;;;;5.38;3.75;;;21.70;99.90;;;;;;5046234;28;20517;-44
2023/08/06 11:07:37;;;;;;;4.97;3.60;;;21.50;99.90;;;;;;5046538;28;20056;-45
2023/08/06 11:10:08;;;;;;;5.68;3.42;;;21.20;99.90;;;;;;5034986;28;20322;-46
2023/08/06 11:12:34;;;;;;;3.88;3.35;;;21.20;99.90;;;;;;5054217;28;20131;-45
2023/08/06 11:15:01;;;;;;;5.25;3.30;;;21.00;99.90;;;;;;5036648;28;20064;-43
2023/08/06 11:17:29;;;;;;;3.50;3.20;;;20.90;99.90;;;;;;5051450;28;20056;-43
2023/08/06 11:19:54;;;;;;;5.70;3.67;;;20.80;99.90;;;;;;5047744;28;20080;-44
2023/08/06 11:22:23;;;;;;;4.65;3.10;;;20.60;99.90;;;;;;5033443;28;20139;-45
2023/08/06 11:24:49;;;;;;;3.97;3.10;;;20.40;99.90;;;;;;5042944;28;20392;-48
2023/08/06 11:27:16;;;;;;;5.85;3.10;;;20.20;99.90;;;;;;5036421;28;20570;-42
2023/08/06 11:29:43;;;;;;;4.03;2.83;;;20.20;99.90;;;;;;5038172;28;20121;-47
2023/08/06 11:32:10;;;;;;;4.18;3.35;;;20.20;99.90;;;;;;5055050;28;20068;-46
2023/08/06 11:34:37;;;;;;;8.50;4.10;;;20.30;99.90;;;;;;5055096;28;20055;-42
2023/08/06 11:37:06;;;;;;;5.50;3.97;;;20.40;99.90;;;;;;5036800;28;20059;-44
2023/08/06 11:39:36;;;;;;;3.45;2.90;;;20.60;99.90;;;;;;5041946;28;20045;-45
2023/08/06 11:42:06;;;;;;;3.75;3.17;;;20.70;99.90;;;;;;5029889;28;20057;-42
2023/08/06 11:44:34;;;;;;;7.63;4.97;;;20.90;99.90;;;;;;5049436;28;20056;-42
2023/08/06 11:47:02;;;;;;;4.72;3.17;;;21.10;99.90;;;;;;5046443;28;20483;-45
2023/08/06 11:49:48;;;;;;;3.67;2.78;;;21.10;99.90;;;;;;5048309;28;20399;-44
2023/08/06 11:52:19;;;;;;;4.40;2.63;;;21.00;99.90;;;;;;5047045;28;20060;-42
2023/08/06 11:55:06;;;;;;;6.28;3.13;;;21.00;99.90;;;;;;5041689;28;20055;-44
2023/08/06 11:57:34;;;;;;;6.13;3.50;;;21.00;99.90;;;;;;5055267;28;20071;-43
2023/08/06 12:00:05;;;;;;;5.25;3.78;;;20.90;99.90;;;;;;5054862;28;20063;-45
2023/08/06 12:02:36;;;;;;;4.05;3.50;;;20.90;99.90;;;;;;5054989;28;20048;-44
2023/08/06 12:05:11;;;;;;;5.32;3.45;;;20.90;99.90;;;;;;5054678;28;20048;-42
2023/08/06 12:07:40;;;;;;;4.72;3.95;;;21.10;99.90;;;;;;5055021;28;20286;-42
2023/08/06 12:10:06;;;;;;;5.38;3.78;;;21.00;99.90;;;;;;5054377;28;20126;-45
2023/08/06 12:12:32;;;;;;;5.28;4.07;;;21.00;99.90;;;;;;5041122;28;20044;-42
2023/08/06 12:14:57;;;;;;;5.20;3.67;;;21.00;99.90;;;;;;5053088;28;20055;-42
2023/08/06 12:17:24;;;;;;;4.78;4.07;;;21.30;99.90;;;;;;5054448;28;20049;-43
2023/08/06 12:19:50;;;;;;;4.40;3.65;;;21.40;99.90;;;;;;5024600;28;20215;-42
2023/08/06 12:22:16;;;;;;;5.35;3.60;;;21.70;99.90;;;;;;5029594;28;20053;-44
2023/08/06 12:24:46;;;;;;;5.63;3.83;;;21.90;99.90;;;;;;5025023;28;20044;-49
2023/08/06 12:27:13;;;;;;;4.88;3.80;;;22.10;99.90;;;;;;5052530;28;20159;-43
2023/08/06 12:29:47;;;;;;;5.28;3.55;;;22.00;99.90;;;;;;5043413;28;20083;-46
2023/08/06 12:32:14;;;;;;;6.18;3.97;;;21.90;99.90;;;;;;5036475;28;20131;-41